Central Il Rgnl Arpt at Bloomington-Normal Airport
KBMI : now visible

Airfield :











YOU CAN JOIN US ON...

 
LOGIN :

Register | Disclaimer

   EN    FR    IT 

 









Legend :    VFR   Marginal VFR   IFR   Intensive IFR   Very Intensive IFR
Visi :
Ceiling :
>= 8 km
>= 3000ft
5 to 8 km
1000 to 3000 ft
1500m to 5 km
500 to 1000 ft
800 to 1500m
200 to 500 ft
< 800m
< 200 ft
Symbols :   Thunderstorms  Fog  Heavy snow  Heavy precipitations  Wind > 20 kt






- Airport Elevation : 871 ft
- IATA code : BMI


KBMI - Central Il Rgnl Arpt at Bloomington-Normal

CURRENT METAR :
  • 142056Z 30013KT 10SM OVC014 M01/M04 A2981 RMK AO2 SLP099 T10111044 53010

EXPIRED METARs :
  • 141956Z 30018G22KT 10SM OVC012 M02/M04 A2980 RMK AO2 SLP098 T10171039
  • 141914Z 30015KT 10SM OVC010 M01/M03 A2978 RMK AO2
  • 141856Z 31016KT 7SM OVC008 M01/M03 A2977 RMK AO2 CIG 006V010 SLP089 T10111028
  • 141831Z 30013KT 7SM OVC006 M01/M02 A2978 RMK AO2

TAF KBMI
Valid from the 14 at 18:00 until the 15 at 18:00 UTC


141829Z 1418/1518 31011KT 4SM BR OVC009
TEMPO 1418/1420 2SM BR OVC004
FM142000 30012KT P6SM BKN014
FM150100 30011KT P6SM BKN025
FM151000 32005KT P6SM BKN120



MET'MAP, your aeronautical weather chart ! - Copyright ORBIFLY December 2007 - Disclaimer

ORBIFLY MET'MAP TEAM :

Programming & Development : Alexandra Zaïnal
Concept & original design : Baudouin d'Aumeries
Assistance for programming : Marc-Olivier Méhu
Technical & hardware support : Manuel Goepfert

Contact : metmap@orbifly.com




SOURCES & CREDITS :

   NOAA       Earth
Advisory